Selected Arizona METAR Reports


Metar stations are listed by distance from this station - near to far. The 'official' reporting station for the Greater Phoenix area is KPHX - Phoenix/Sky Harbor.

KDVT - Phoenix/Deer Valley, Arizona, USA
Distance from station: NW 4mi, 7km
Updated: Sat 23 Jun 2018 1153 MST
Clear
Clear
 Wind from SW
Wind: SW 10 mph , 17 km/h
Temperature: 97°F , 36°C
Dew Point: 34°F , 1°C
Humidity: 11%
Barometer: 29.81 inHg , 1009.5 hPa
Clouds: Clear
Visibility: 10 miles , 16 km
2018/06/23 18:53 KDVT 231853Z AUTO 23009KT 10SM CLR 36/01 A2981 RMK AO2 SLP064 T03610011
KSDL - Scottsdale, Arizona, USA
Distance from station: ESE 6mi, 9km
Updated: Sat 23 Jun 2018 1153 MST
Clear
Clear
 Wind from SSW
Wind: SSW 9 mph , 15 km/h
Temperature: 100°F , 38°C
Dew Point: 45°F , 7°C
Humidity: 15%
Barometer: 29.82 inHg , 1009.8 hPa
Clouds: Clear
Visibility: 10 miles , 16 km
2018/06/23 18:53 KSDL 231853Z 20008KT 10SM CLR 38/07 A2982 RMK AO2 SLP067 T03780072
 
KPHX - Phoenix/Sky Harbor, Arizona, USA
Distance from station: S 15mi, 24km
Updated: Sat 23 Jun 2018 1151 MST
Clear
Clear
 Wind from WNW
Wind: WNW 8 mph , 13 km/h
Temperature: 100°F , 38°C
Dew Point: 39°F , 4°C
Humidity: 12%
Barometer: 29.78 inHg , 1008.5 hPa
Clouds: Clear
Visibility: 10 miles , 16 km
2018/06/23 18:51 KPHX 231851Z 29007KT 10SM CLR 38/04 A2978 RMK AO2 SLP059 T03780039 $
KGEU - Glendale, Arizona, USA
Distance from station: WSW 19mi, 30km
Updated: Sat 23 Jun 2018 1149 MST
Clear
Clear
 Wind from SSW
Wind: SSW 10 mph , 17 km/h, Gust: 18 mph , 30 km/h
Temperature: 100°F , 38°C
Dew Point: 39°F , 4°C
Humidity: 12%
Barometer: 29.80 inHg , 1009.1 hPa
Clouds: Clear
Visibility: 10 miles , 16 km
2018/06/23 18:49 KGEU 231849Z 20009G16KT 10SM SKC 38/04 A2980
 
KFFZ - Mesa/Falcon Field, Arizona, USA
Distance from station: SE 21mi, 33km
Updated: Sat 23 Jun 2018 1152 MST
Clear
Clear
 Wind from S
Wind: S 7 mph , 11 km/h
Temperature: 99°F , 37°C
Dew Point: 45°F , 7°C
Humidity: 16%
Barometer: 29.82 inHg , 1009.8 hPa
Clouds: Clear
Visibility: 40 miles , 64 km
2018/06/23 18:52 KFFZ 231852Z 19006KT 40SM SKC 37/07 A2982
KLUF - Luke AFB/Glendale, Arizona, USA
Distance from station: WSW 23mi, 36km
Updated: Sat 23 Jun 2018 1158 MST
Clear
Clear
 Wind from SW
Wind: SW 9 mph , 15 km/h
Temperature: 99°F , 37°C
Dew Point: 45°F , 7°C
Humidity: 16%
Barometer: 29.78 inHg , 1008.5 hPa
Clouds: Clear
Visibility: 10 miles , 16 km
2018/06/23 18:58 KLUF 231858Z AUTO 23008KT 10SM CLR 37/07 A2978 RMK AO2 SLP068 T03720071 $
 
KGYR - Goodyear Municipal, Arizona, USA
Distance from station: SW 26mi, 42km
Updated: Sat 23 Jun 2018 1147 MST
Clear
Clear
 Wind from WSW
Wind: WSW 14 mph , 22 km/h, Gust: 18 mph , 30 km/h
Temperature: 100°F , 38°C
Dew Point: 45°F , 7°C
Humidity: 15%
Barometer: 29.78 inHg , 1008.5 hPa
Clouds: Clear
Visibility: 10 miles , 16 km
2018/06/23 18:47 KGYR 231847Z 25012G16KT 10SM SKC 38/07 A2978
KIWA - Chandler/Mesa, Arizona, USA
Distance from station: SE 32mi, 51km
Updated: Sat 23 Jun 2018 1149 MST
Clear
Clear
 Wind from SW
Wind: SW 13 mph , 20 km/h
Temperature: 100°F , 38°C
Dew Point: 45°F , 7°C
Humidity: 15%
Barometer: 29.82 inHg , 1009.8 hPa
Clouds: Clear
Visibility: 20 miles , 32 km
2018/06/23 18:49 KIWA 231849Z 22011KT 20SM SKC 38/07 A2982
 
KBXK - Buckeye, Arizona, USA
Distance from station: WSW 42mi, 68km
Updated: Sat 23 Jun 2018 1155 MST
Clear
Clear
 Wind from SSW
Wind: SSW 7 mph , 11 km/h
Temperature: 99°F , 37°C
Dew Point: 43°F , 6°C
Humidity: 15%
Barometer: 29.79 inHg , 1008.8 hPa
Clouds: Clear
Visibility: 10 miles , 16 km
2018/06/23 18:55 KBXK 231855Z AUTO 20006KT 10SM CLR 37/06 A2979 RMK AO1
KCGZ - Casa Grande, Arizona, USA
Distance from station: SSE 50mi, 81km
Updated: Sat 23 Jun 2018 1156 MST
Clear
Clear
 Wind from SSW
Wind: SSW 14 mph , 22 km/h, Gust: 20 mph , 31 km/h
Temperature: 100°F , 38°C
Dew Point: 46°F , 8°C
Humidity: 16%
Barometer: 29.82 inHg , 1009.8 hPa
Clouds: Clear
Visibility: 10 miles , 16 km
2018/06/23 18:56 KCGZ 231856Z AUTO 21012G17KT 10SM CLR 38/08 A2982 RMK AO2 SLP079 T03830078 PNO $
 
KPAN - Payson, Arizona, USA
Distance from station: NE 57mi, 91km
Updated: Sat 23 Jun 2018 1155 MST
Clear
Clear
 Wind from WNW
Wind: WNW 9 mph , 15 km/h, Gust: 18 mph , 30 km/h
Temperature: 90°F , 32°C
Dew Point: 28°F , -2°C
Humidity: 11%
Barometer: 30.06 inHg , 1017.9 hPa
Clouds: Clear
Visibility: 10 miles , 16 km
2018/06/23 18:55 KPAN 231855Z AUTO 29008G16KT 250V320 10SM CLR 32/M02 A3006 RMK AO2
KGBN - Gila Bend (aaf), Arizona, USA
Distance from station: SW 68mi, 109km
Updated: Thu 20 Jul 2017 0757 MST
NOT Current
Partly cloudy
Partly cloudy
 Wind from calm
Wind: Calm
Temperature: 86°F , 30°C
Heat Index: 89°F , 32°C
Dew Point: 68°F , 20°C
Humidity: 55%
Barometer: 29.97 inHg , 1014.9 hPa
Clouds: Partly cloudy
Visibility: 10 miles , 16 km
Cloud details: Few Clouds 10000 ft
Partly cloudy 15000 ft
2017/07/20 14:57 KGBN 201457Z 00000KT 10SM FEW100 SCT150 30/20 A2997 RMK A02 NO SLP
 
KPRC - Prescott, Arizona, USA
Distance from station: NNW 73mi, 118km
Updated: Sat 23 Jun 2018 1153 MST
Clear
Clear
 Wind from WSW
Wind: WSW 16 mph , 26 km/h, Gust: 24 mph , 39 km/h
Temperature: 91°F , 33°C
Dew Point: 28°F , -2°C
Humidity: 10%
Barometer: 30.03 inHg , 1016.9 hPa
Clouds: Clear
Visibility: 10 miles , 16 km
2018/06/23 18:53 KPRC 231853Z 24014G21KT 10SM CLR 33/M02 A3003 RMK AO2 SLP067 T03281017
KSEZ - Sedona, Arizona, USA
Distance from station: N 84mi, 135km
Updated: Sat 23 Jun 2018 1155 MST
Clear
Clear
 Wind from SSW
Wind: SSW 12 mph , 19 km/h, Gust: 18 mph , 30 km/h
Temperature: 97°F , 36°C
Dew Point: 32°F , 0°C
Humidity: 10%
Barometer: 30.02 inHg , 1016.6 hPa
Clouds: Clear
Visibility: 10 miles , 16 km
2018/06/23 18:55 KSEZ 231855Z AUTO 20010G16KT 150V230 10SM CLR 36/00 A3002 RMK AO2
 
KFLG - Flagstaff, Arizona, USA
Distance from station: N 105mi, 168km
Updated: Sat 23 Jun 2018 1157 MST
Clear
Clear
 Wind from SW
Wind: SW 20 mph , 31 km/h, Gust: 25 mph , 41 km/h
Temperature: 82°F , 28°C
Dew Point: 25°F , -4°C
Humidity: 12%
Barometer: 30.15 inHg , 1021 hPa
Clouds: Clear
Visibility: 10 miles , 16 km
2018/06/23 18:57 KFLG 231857Z 22017G22KT 10SM CLR 28/M04 A3015 RMK AO2 SLP092 T02831044
KRYN - Tucson/Ryan Field, Arizona, USA
Distance from station: SSE 114mi, 184km
Updated: Sat 23 Jun 2018 1150 MST
Clear
Clear
 Wind from SSW
Wind: SSW 16 mph , 26 km/h, Gust: 21 mph , 33 km/h
Temperature: 97°F , 36°C
Dew Point: 50°F , 10°C
Humidity: 20%
Barometer: 29.91 inHg , 1012.9 hPa
Clouds: Clear
Visibility: 10 miles , 16 km
2018/06/23 18:50 KRYN 231850Z 20014G18KT 10SM CLR 36/10 A2991
 
KCMR - Williams Clark, Arizona, USA
Distance from station: N 115mi, 185km
Updated: Sat 23 Jun 2018 1155 MST
Clear
Clear
 Wind from SW
Wind: SW 17 mph , 28 km/h, Gust: 25 mph , 41 km/h
Temperature: 86°F , 30°C
Dew Point: 18°F , -8°C
Humidity: 8%
Barometer: 30.12 inHg , 1020 hPa
Clouds: Clear
Visibility: 10 miles , 16 km
2018/06/23 18:55 KCMR 231855Z AUTO 22015G22KT 190V250 10SM CLR 30/M08 A3012 RMK AO2
KINW - Winslow, Arizona, USA
Distance from station: NE 121mi, 194km
Updated: Sat 23 Jun 2018 1156 MST
Clear
Clear
 Wind from N
Wind: N 8 mph , 13 km/h, Gust: 20 mph , 31 km/h
Temperature: 97°F , 36°C
Dew Point: 21°F , -6°C
Humidity: 6%
Barometer: 29.96 inHg , 1014.6 hPa
Clouds: Clear
Visibility: 10 miles , 16 km
2018/06/23 18:56 KINW 231856Z AUTO 01007G17KT 10SM CLR 36/M06 A2996 RMK AO2 SLP048 T03561056
 
KTUS - Tucson, Arizona, USA
Distance from station: SSE 121mi, 195km
Updated: Sat 23 Jun 2018 1153 MST
Clear
Clear
 Wind from NW
Wind: NW 10 mph , 17 km/h
Temperature: 97°F , 36°C
Dew Point: 45°F , 7°C
Humidity: 17%
Barometer: 29.93 inHg , 1013.5 hPa
Clouds: Clear
Visibility: 10 miles , 16 km
2018/06/23 18:53 KTUS 231853Z 31009KT 10SM CLR 36/07 A2993 RMK AO2 SLP077 T03610067
KDMA - Davis AFB/Tucson, Arizona, USA
Distance from station: SE 122mi, 196km
Updated: Sat 23 Jun 2018 1158 MST
Clear
Clear
 Wind from SW
Wind: SW 7 mph , 11 km/h
Temperature: 97°F , 36°C
Dew Point: 48°F , 9°C
Humidity: 19%
Barometer: 29.91 inHg , 1012.9 hPa
Clouds: Clear
Visibility: 10 miles , 16 km
2018/06/23 18:58 KDMA 231858Z AUTO 22006KT 10SM CLR 36/09 A2991 RMK AO2 SLP078 T03620089 $
 
KSOW - Show Low Municipal, Arizona, USA
Distance from station: ENE 123mi, 198km
Updated: Sat 23 Jun 2018 1155 MST
Clear
Clear
 Wind from SSW
Wind: SSW 14 mph , 22 km/h, Gust: 26 mph , 43 km/h
Temperature: 88°F , 31°C
Dew Point: 21°F , -6°C
Humidity: 9%
Barometer: 30.12 inHg , 1020 hPa
Clouds: Clear
Visibility: 10 miles , 16 km
2018/06/23 18:55 KSOW 231855Z AUTO 20012G23KT 10SM CLR 31/M06 A3012 RMK AO2
KSAD - Safford, Arizona, USA
Distance from station: ESE 148mi, 238km
Updated: Sat 23 Jun 2018 1151 MST
Clear
Clear
 Wind from NW
Wind: NW 14 mph , 22 km/h, Gust: 30 mph , 48 km/h
Temperature: 100°F , 38°C
Dew Point: 30°F , -1°C
Humidity: 8%
Barometer: 29.86 inHg , 1011.2 hPa
Clouds: Clear
Visibility: 10 miles , 16 km
2018/06/23 18:51 KSAD 231851Z AUTO 32012G26KT 10SM CLR 38/M01 A2986 RMK AO2 PK WND 26026/1846 SLP045 T03831006